createdAt,value
2018-07-16T00:00:12.227Z,99.90
2018-07-16T00:01:16.256Z,99.90
2018-07-16T00:02:20.280Z,99.90
2018-07-16T00:03:24.328Z,99.90
2018-07-16T00:04:28.299Z,99.90
2018-07-16T00:05:32.286Z,99.90
2018-07-16T00:06:36.334Z,99.90
2018-07-16T00:07:40.354Z,99.90
2018-07-16T00:08:44.385Z,99.90
2018-07-16T00:09:48.403Z,99.90
2018-07-16T00:10:52.392Z,99.90
2018-07-16T00:11:56.436Z,99.90
2018-07-16T00:13:00.508Z,99.90
2018-07-16T00:14:04.562Z,99.90
2018-07-16T00:15:08.675Z,99.90
2018-07-16T00:16:12.807Z,99.90
2018-07-16T00:17:16.810Z,99.90
2018-07-16T00:18:20.821Z,99.90
2018-07-16T00:19:24.803Z,99.90
2018-07-16T00:20:28.807Z,99.90
2018-07-16T00:21:32.825Z,99.90
2018-07-16T00:22:36.884Z,99.90
2018-07-16T00:23:40.975Z,99.90
2018-07-16T00:24:45.291Z,99.90
2018-07-16T00:25:49.308Z,99.90
2018-07-16T00:26:53.318Z,99.90
2018-07-16T00:27:57.364Z,99.90
2018-07-16T00:29:01.391Z,99.90
2018-07-16T00:30:05.539Z,99.90
2018-07-16T00:31:09.531Z,99.90
2018-07-16T00:32:13.544Z,99.90
2018-07-16T00:33:17.637Z,99.90
2018-07-16T00:34:21.708Z,99.90
2018-07-16T00:35:25.736Z,99.90
2018-07-16T00:36:29.838Z,99.90
2018-07-16T00:37:33.849Z,99.90
2018-07-16T00:38:37.870Z,99.90
2018-07-16T00:39:42.025Z,99.90
2018-07-16T00:40:46.037Z,99.90
2018-07-16T00:41:50.053Z,99.90
2018-07-16T00:42:54.053Z,99.90
2018-07-16T00:43:58.049Z,99.90
2018-07-16T00:45:02.104Z,99.90
2018-07-16T00:46:06.119Z,99.90
2018-07-16T00:47:10.121Z,99.90
2018-07-16T00:48:14.108Z,99.90
2018-07-16T00:49:18.155Z,99.90
2018-07-16T00:50:22.123Z,99.90
2018-07-16T00:51:26.176Z,99.90
2018-07-16T00:52:30.156Z,99.90
2018-07-16T00:53:34.125Z,99.90
2018-07-16T00:54:38.155Z,99.90
2018-07-16T00:55:42.200Z,99.90
2018-07-16T00:56:46.238Z,99.90
2018-07-16T00:57:50.267Z,99.90
2018-07-16T00:58:54.320Z,99.90
2018-07-16T00:59:58.322Z,99.90
2018-07-16T01:01:02.319Z,99.90
2018-07-16T01:02:06.701Z,99.90
2018-07-16T01:03:10.701Z,99.90
2018-07-16T01:04:14.747Z,99.90
2018-07-16T01:05:18.778Z,99.90
2018-07-16T01:06:22.866Z,99.90
2018-07-16T01:07:26.866Z,99.90
2018-07-16T01:08:30.891Z,99.90
2018-07-16T01:09:34.991Z,99.90
2018-07-16T01:10:38.987Z,99.90
2018-07-16T01:11:43.056Z,99.90
2018-07-16T01:12:47.165Z,99.90
2018-07-16T01:13:51.175Z,99.90
2018-07-16T01:14:55.199Z,99.90
2018-07-16T01:15:59.254Z,99.90
2018-07-16T01:18:06.899Z,99.90
2018-07-16T01:19:10.934Z,99.90
2018-07-16T01:20:15.112Z,99.90
2018-07-16T01:21:19.159Z,99.90
2018-07-16T01:22:23.169Z,99.90
2018-07-16T01:23:27.253Z,99.90
2018-07-16T01:24:31.260Z,99.90
2018-07-16T01:25:35.270Z,99.90
2018-07-16T01:26:39.260Z,99.90
2018-07-16T01:27:43.257Z,99.90
2018-07-16T01:28:47.285Z,99.90
2018-07-16T01:29:51.303Z,99.90
2018-07-16T01:30:55.281Z,99.90
2018-07-16T01:31:59.275Z,99.90
2018-07-16T01:33:03.289Z,99.90
2018-07-16T01:34:07.387Z,99.90
2018-07-16T01:35:11.391Z,99.90
2018-07-16T01:36:15.475Z,99.90
2018-07-16T01:37:19.548Z,99.90
2018-07-16T01:38:23.587Z,99.90
2018-07-16T01:39:27.581Z,99.90
2018-07-16T01:40:31.654Z,99.90
2018-07-16T01:41:35.802Z,99.90
2018-07-16T01:42:39.811Z,99.90
2018-07-16T01:43:43.803Z,99.90
2018-07-16T01:44:47.808Z,99.90
2018-07-16T01:45:51.865Z,99.90
2018-07-16T01:46:55.885Z,99.90
2018-07-16T01:47:59.905Z,99.90
2018-07-16T01:49:03.951Z,99.90
2018-07-16T01:50:08.214Z,99.90
2018-07-16T01:51:12.214Z,99.90
2018-07-16T01:52:16.213Z,99.90
2018-07-16T01:53:20.307Z,99.90
2018-07-16T01:54:24.419Z,99.90
2018-07-16T01:55:28.557Z,99.90
2018-07-16T01:56:32.522Z,99.90
2018-07-16T01:57:36.524Z,99.90
2018-07-16T01:58:40.523Z,99.90
2018-07-16T01:59:44.592Z,99.90
2018-07-16T02:00:58.962Z,99.90
2018-07-16T02:02:03.020Z,99.90
2018-07-16T02:03:07.083Z,99.90
2018-07-16T02:04:11.100Z,99.90
2018-07-16T02:05:15.128Z,99.90
2018-07-16T02:06:19.187Z,99.90
2018-07-16T02:07:23.167Z,99.90
2018-07-16T02:08:27.582Z,99.90
2018-07-16T02:09:31.683Z,99.90
2018-07-16T02:10:35.761Z,99.90
2018-07-16T02:11:39.862Z,99.90
2018-07-16T02:12:43.877Z,99.90
2018-07-16T02:13:47.912Z,99.90
2018-07-16T02:14:51.962Z,99.90
2018-07-16T02:15:55.994Z,99.90
2018-07-16T02:17:00.014Z,99.90
2018-07-16T02:18:04.211Z,99.90
2018-07-16T02:19:08.242Z,99.90
2018-07-16T02:20:12.277Z,99.90
2018-07-16T02:21:16.311Z,99.90
2018-07-16T02:22:20.424Z,99.90
2018-07-16T02:23:24.449Z,99.90
2018-07-16T02:24:28.469Z,99.90
2018-07-16T02:25:32.551Z,99.90
2018-07-16T02:26:36.608Z,99.90
2018-07-16T02:27:40.622Z,99.90
2018-07-16T02:28:44.749Z,99.90
2018-07-16T02:29:48.759Z,99.90
2018-07-16T02:30:52.776Z,99.90
2018-07-16T02:31:56.760Z,99.90
2018-07-16T02:33:00.786Z,99.90
2018-07-16T02:34:04.843Z,99.90
2018-07-16T02:35:08.922Z,99.90
2018-07-16T02:36:12.973Z,99.90
2018-07-16T02:37:17.030Z,99.90
2018-07-16T02:38:21.141Z,99.90
2018-07-16T02:39:25.180Z,99.90
2018-07-16T02:40:29.288Z,99.90
2018-07-16T02:41:33.280Z,99.90
2018-07-16T02:42:37.778Z,99.90
2018-07-16T02:43:42.064Z,99.90
2018-07-16T02:44:46.265Z,99.90
2018-07-16T02:45:50.281Z,99.90
2018-07-16T02:46:56.043Z,99.90
2018-07-16T02:48:00.204Z,99.90
2018-07-16T02:49:04.211Z,99.90
2018-07-16T02:50:08.538Z,99.90
2018-07-16T02:51:12.551Z,99.90
2018-07-16T02:52:16.632Z,99.90
2018-07-16T02:53:20.656Z,99.90
2018-07-16T02:54:24.678Z,99.90
2018-07-16T02:55:28.755Z,99.90
2018-07-16T02:56:32.995Z,99.90
2018-07-16T02:57:37.080Z,99.90
2018-07-16T02:58:41.086Z,99.90
2018-07-16T02:59:45.125Z,99.90
2018-07-16T03:01:52.817Z,99.90
2018-07-16T03:02:56.811Z,99.90
2018-07-16T03:04:00.788Z,99.90
2018-07-16T03:05:05.287Z,99.90
2018-07-16T03:06:09.277Z,99.90
2018-07-16T03:07:13.319Z,99.90
2018-07-16T03:08:17.314Z,99.90
2018-07-16T03:09:21.338Z,99.90
2018-07-16T03:10:25.416Z,99.90
2018-07-16T03:11:29.479Z,99.90
2018-07-16T03:12:33.483Z,99.90
2018-07-16T03:13:37.487Z,99.90
2018-07-16T03:14:41.538Z,99.90
2018-07-16T03:15:45.630Z,99.90
2018-07-16T03:16:49.613Z,99.90
2018-07-16T03:17:53.722Z,99.90
2018-07-16T03:18:57.891Z,99.90
2018-07-16T03:20:01.906Z,99.90
2018-07-16T03:21:06.107Z,99.90
2018-07-16T03:22:10.121Z,99.90
2018-07-16T03:23:14.095Z,99.90
2018-07-16T03:24:18.139Z,99.90
2018-07-16T03:25:22.174Z,99.90
2018-07-16T03:26:26.200Z,99.90
2018-07-16T03:27:30.207Z,99.90
2018-07-16T03:28:34.228Z,99.90
2018-07-16T03:29:38.292Z,99.90
2018-07-16T03:30:42.441Z,99.90
2018-07-16T03:31:46.471Z,99.90
2018-07-16T03:32:50.615Z,99.90
2018-07-16T03:33:54.750Z,99.90
2018-07-16T03:34:58.796Z,99.90
2018-07-16T03:36:02.962Z,99.90
2018-07-16T03:37:07.227Z,99.90
2018-07-16T03:38:11.287Z,99.90
2018-07-16T03:39:15.330Z,99.90
2018-07-16T03:40:19.357Z,99.90
2018-07-16T03:41:23.373Z,99.90
2018-07-16T03:42:27.356Z,99.90
2018-07-16T03:43:31.371Z,99.90
2018-07-16T03:44:35.458Z,99.90
2018-07-16T03:45:39.479Z,99.90
2018-07-16T03:46:43.550Z,99.90
2018-07-16T03:47:47.583Z,99.90
2018-07-16T03:48:51.612Z,99.90
2018-07-16T03:49:55.606Z,99.90
2018-07-16T03:50:59.639Z,99.90
2018-07-16T03:52:03.695Z,99.90
2018-07-16T03:53:07.744Z,99.90
2018-07-16T03:54:11.816Z,99.90
2018-07-16T03:56:19.425Z,99.90
2018-07-16T03:57:23.467Z,99.90
2018-07-16T03:58:27.500Z,99.90
2018-07-16T03:59:31.790Z,99.90
2018-07-16T04:00:35.959Z,99.90
2018-07-16T04:01:40.232Z,99.90
2018-07-16T04:02:44.181Z,99.90
2018-07-16T04:03:48.182Z,99.90
2018-07-16T04:04:52.232Z,99.90
2018-07-16T04:05:56.247Z,99.90
2018-07-16T04:07:00.240Z,99.90
2018-07-16T04:08:04.253Z,99.90
2018-07-16T04:09:08.725Z,99.90
2018-07-16T04:10:12.734Z,99.90
2018-07-16T04:11:16.754Z,99.90
2018-07-16T04:13:24.441Z,99.90
2018-07-16T04:14:28.454Z,99.90
2018-07-16T04:15:32.470Z,99.90
2018-07-16T04:16:36.528Z,99.90
2018-07-16T04:17:40.787Z,99.90
2018-07-16T04:18:44.887Z,99.90
2018-07-16T04:19:49.030Z,99.90
2018-07-16T04:20:53.066Z,99.90
2018-07-16T04:21:57.169Z,99.90
2018-07-16T04:23:01.275Z,99.90
2018-07-16T04:24:05.258Z,99.90
2018-07-16T04:25:09.330Z,99.90
2018-07-16T04:26:13.325Z,99.90
2018-07-16T04:27:17.419Z,99.90
2018-07-16T04:28:21.431Z,99.90
2018-07-16T04:29:25.495Z,99.90
2018-07-16T04:30:29.615Z,99.90
2018-07-16T04:31:33.760Z,99.90
2018-07-16T04:32:37.747Z,99.90
2018-07-16T04:33:41.813Z,99.90
2018-07-16T04:34:45.814Z,99.90
2018-07-16T04:35:49.876Z,99.90
2018-07-16T04:36:53.876Z,99.90
2018-07-16T04:37:57.933Z,99.90
2018-07-16T04:39:02.111Z,99.90
2018-07-16T04:40:06.206Z,99.90
2018-07-16T04:41:10.361Z,99.90
2018-07-16T04:42:14.347Z,99.90
2018-07-16T04:43:18.427Z,99.90
2018-07-16T04:45:26.055Z,99.90
2018-07-16T04:46:30.128Z,99.90
2018-07-16T04:47:34.134Z,99.90
2018-07-16T04:48:38.186Z,99.90
2018-07-16T04:49:42.190Z,99.90
2018-07-16T04:50:46.210Z,99.90
2018-07-16T04:51:50.311Z,99.90
2018-07-16T04:52:54.291Z,99.90
2018-07-16T04:53:58.426Z,99.90
2018-07-16T04:55:02.427Z,99.90
2018-07-16T04:56:06.532Z,99.90
2018-07-16T04:57:10.479Z,99.90
2018-07-16T04:58:14.520Z,99.90
2018-07-16T04:59:18.540Z,99.90
2018-07-16T05:00:22.605Z,99.90
2018-07-16T05:01:26.653Z,99.90
2018-07-16T05:02:30.635Z,99.90
2018-07-16T05:03:34.620Z,99.90
2018-07-16T05:04:38.620Z,99.90
2018-07-16T05:05:42.679Z,99.90
2018-07-16T05:06:46.703Z,99.90
2018-07-16T05:07:50.743Z,99.90
2018-07-16T05:08:54.822Z,99.90
2018-07-16T05:09:58.830Z,99.90
2018-07-16T05:11:02.867Z,99.90
2018-07-16T05:12:06.889Z,99.90
2018-07-16T05:13:10.915Z,99.90
2018-07-16T05:14:14.976Z,99.90
2018-07-16T05:15:19.012Z,99.90
2018-07-16T05:16:23.033Z,99.90
2018-07-16T05:17:27.091Z,99.90
2018-07-16T05:18:31.195Z,99.90
2018-07-16T05:19:35.220Z,99.90
2018-07-16T05:20:39.250Z,99.90
2018-07-16T05:21:43.283Z,99.90
2018-07-16T05:22:47.289Z,99.90
2018-07-16T05:23:51.330Z,99.90
2018-07-16T05:25:59.032Z,99.90
2018-07-16T05:27:03.235Z,99.90
2018-07-16T05:28:07.281Z,99.90
2018-07-16T05:29:11.384Z,99.90
2018-07-16T05:30:15.490Z,99.90
2018-07-16T05:31:19.482Z,99.90
2018-07-16T05:32:23.780Z,99.90
2018-07-16T05:33:27.803Z,99.90
2018-07-16T05:34:32.158Z,99.90
2018-07-16T05:35:36.152Z,99.90
2018-07-16T05:36:40.375Z,99.90
2018-07-16T05:37:44.382Z,99.90
2018-07-16T05:38:48.392Z,99.90
2018-07-16T05:39:52.372Z,99.90
2018-07-16T05:40:56.478Z,99.90
2018-07-16T05:42:00.678Z,99.90
2018-07-16T05:43:04.891Z,99.90
2018-07-16T05:44:08.906Z,99.90
2018-07-16T05:45:13.044Z,99.90
2018-07-16T05:46:17.251Z,99.90
2018-07-16T05:47:21.312Z,99.90
2018-07-16T05:48:25.351Z,99.90
2018-07-16T05:49:29.449Z,99.90
2018-07-16T05:50:33.499Z,99.90
2018-07-16T05:51:37.580Z,99.90
2018-07-16T05:52:41.630Z,99.90
2018-07-16T05:53:45.659Z,99.90
2018-07-16T05:54:49.667Z,99.90
2018-07-16T05:55:53.686Z,99.90
2018-07-16T05:56:57.829Z,99.90
2018-07-16T05:58:01.828Z,99.90
2018-07-16T05:59:06.491Z,99.90
2018-07-16T06:00:10.499Z,99.90
2018-07-16T06:01:14.518Z,99.90
2018-07-16T06:02:18.539Z,99.90
2018-07-16T06:03:22.569Z,99.90
2018-07-16T06:04:26.608Z,99.90
2018-07-16T06:05:30.631Z,99.90
2018-07-16T06:06:34.638Z,99.90
2018-07-16T06:07:38.666Z,99.90
2018-07-16T06:08:42.710Z,99.90
2018-07-16T06:09:46.803Z,99.90
2018-07-16T06:10:50.770Z,99.90
2018-07-16T06:11:54.930Z,99.90
2018-07-16T06:12:59.010Z,99.90
2018-07-16T06:14:03.059Z,99.90
2018-07-16T06:15:07.179Z,99.90
2018-07-16T06:16:11.493Z,99.90
2018-07-16T06:17:15.718Z,99.90
2018-07-16T06:18:19.746Z,99.90
2018-07-16T06:19:23.928Z,99.90
2018-07-16T06:20:27.905Z,99.90
2018-07-16T06:21:31.972Z,99.90
2018-07-16T06:22:36.038Z,99.90
2018-07-16T06:23:40.034Z,99.90
2018-07-16T06:24:44.057Z,99.90
2018-07-16T06:25:48.094Z,99.90
2018-07-16T06:26:52.252Z,99.90
2018-07-16T06:28:59.941Z,99.90
2018-07-16T06:30:04.116Z,99.90
2018-07-16T06:31:08.167Z,99.90
2018-07-16T06:32:12.251Z,99.90
2018-07-16T06:33:16.307Z,99.90
2018-07-16T06:34:20.349Z,99.90
2018-07-16T06:35:24.407Z,99.90
2018-07-16T06:36:28.510Z,99.90
2018-07-16T06:37:32.690Z,99.90
2018-07-16T06:38:36.714Z,99.90
2018-07-16T06:39:40.859Z,99.90
2018-07-16T06:40:45.252Z,99.90
2018-07-16T06:41:49.121Z,99.90
2018-07-16T06:42:53.335Z,99.90
2018-07-16T06:43:57.386Z,99.90
2018-07-16T06:45:01.435Z,99.90
2018-07-16T06:46:05.517Z,99.90
2018-07-16T06:47:09.568Z,99.90
2018-07-16T06:48:13.598Z,99.90
2018-07-16T06:49:17.757Z,99.90
2018-07-16T06:50:21.913Z,99.90
2018-07-16T06:51:25.930Z,99.90
2018-07-16T06:52:30.105Z,99.90
2018-07-16T06:53:34.159Z,99.90
2018-07-16T06:54:38.190Z,99.90
2018-07-16T06:55:42.208Z,99.90
2018-07-16T06:56:46.211Z,99.90
2018-07-16T06:57:50.261Z,99.90
2018-07-16T06:58:54.341Z,99.90
2018-07-16T06:59:58.334Z,99.90
2018-07-16T07:01:02.395Z,99.90
2018-07-16T07:02:06.443Z,99.90
2018-07-16T07:03:10.528Z,99.90
2018-07-16T07:04:14.686Z,99.90
2018-07-16T07:05:18.646Z,99.90
2018-07-16T07:06:22.702Z,99.90
2018-07-16T07:07:26.724Z,99.90
2018-07-16T07:08:30.810Z,99.90
2018-07-16T07:09:35.044Z,99.90
2018-07-16T07:10:39.059Z,99.90
2018-07-16T07:11:43.087Z,99.90
2018-07-16T07:12:47.125Z,99.90
2018-07-16T07:13:51.318Z,99.90
2018-07-16T07:14:55.366Z,99.90
2018-07-16T07:15:59.381Z,99.90
2018-07-16T07:17:03.447Z,99.90
2018-07-16T07:18:07.500Z,99.90
2018-07-16T07:19:11.502Z,99.90
2018-07-16T07:20:15.543Z,99.90
2018-07-16T07:21:19.537Z,99.90
2018-07-16T07:22:23.619Z,99.90
2018-07-16T07:23:27.678Z,99.90
2018-07-16T07:24:31.818Z,99.90
2018-07-16T07:25:35.905Z,99.90
2018-07-16T07:26:39.844Z,99.90
2018-07-16T07:27:43.853Z,99.90
2018-07-16T07:28:47.847Z,99.90
2018-07-16T07:29:51.896Z,99.90
2018-07-16T07:30:55.972Z,99.90
2018-07-16T07:32:00.045Z,99.90
2018-07-16T07:33:04.051Z,99.90
2018-07-16T07:34:08.060Z,99.90
2018-07-16T07:35:12.169Z,99.90
2018-07-16T07:36:16.129Z,99.90
2018-07-16T07:37:20.142Z,99.90
2018-07-16T07:38:24.386Z,99.90
2018-07-16T07:39:28.466Z,99.90
2018-07-16T07:40:32.704Z,99.90
2018-07-16T07:41:36.755Z,99.90
2018-07-16T07:42:40.795Z,99.90
2018-07-16T07:43:44.827Z,99.90
2018-07-16T07:44:48.923Z,99.90
2018-07-16T07:46:56.823Z,99.90
2018-07-16T07:48:00.823Z,99.90
2018-07-16T07:49:04.978Z,99.90
2018-07-16T07:50:09.194Z,99.90
2018-07-16T07:51:13.211Z,99.90
2018-07-16T07:52:17.263Z,99.90
2018-07-16T07:53:21.279Z,99.90
2018-07-16T07:54:25.418Z,99.90
2018-07-16T07:55:29.326Z,99.90
2018-07-16T07:56:33.376Z,99.90
2018-07-16T07:57:37.421Z,99.90
2018-07-16T07:58:41.403Z,99.90
2018-07-16T07:59:45.692Z,99.90
2018-07-16T08:00:49.684Z,99.90
2018-07-16T08:01:53.670Z,99.90
2018-07-16T08:02:57.821Z,99.90
2018-07-16T08:04:01.964Z,99.90
2018-07-16T08:05:05.998Z,99.90
2018-07-16T08:06:10.043Z,99.90
2018-07-16T08:07:14.465Z,99.90
2018-07-16T08:08:18.519Z,99.90
2018-07-16T08:09:22.590Z,99.90
2018-07-16T08:10:26.622Z,99.90
2018-07-16T08:11:30.713Z,99.90
2018-07-16T08:12:34.793Z,99.90
2018-07-16T08:13:38.868Z,99.90
2018-07-16T08:14:43.995Z,99.90
2018-07-16T08:15:48.007Z,99.90
2018-07-16T08:16:52.071Z,99.90
2018-07-16T08:17:56.101Z,99.90
2018-07-16T08:19:00.122Z,99.90
2018-07-16T08:20:04.696Z,99.90
2018-07-16T08:21:08.823Z,99.90
2018-07-16T08:22:12.944Z,99.90
2018-07-16T08:23:17.034Z,99.90
2018-07-16T08:24:21.037Z,99.90
2018-07-16T08:25:25.141Z,99.90
2018-07-16T08:26:29.266Z,99.90
2018-07-16T08:27:33.345Z,99.90
2018-07-16T08:28:37.405Z,99.90
2018-07-16T08:29:41.450Z,99.90
2018-07-16T08:30:45.494Z,99.90
2018-07-16T08:31:49.625Z,99.90
2018-07-16T08:32:53.656Z,99.90
2018-07-16T08:33:57.656Z,99.90
2018-07-16T08:35:01.713Z,99.90
2018-07-16T08:36:05.893Z,99.90
2018-07-16T08:37:09.896Z,99.90
2018-07-16T08:38:13.911Z,99.90
2018-07-16T08:39:18.037Z,99.90
2018-07-16T08:40:22.139Z,99.90
2018-07-16T08:41:26.183Z,99.90
2018-07-16T08:42:30.217Z,99.90
2018-07-16T08:43:34.373Z,99.90
2018-07-16T08:44:38.383Z,99.90
2018-07-16T08:45:42.387Z,99.90
2018-07-16T08:46:46.425Z,99.90
2018-07-16T08:47:50.462Z,99.90
2018-07-16T08:48:54.463Z,99.90
2018-07-16T08:49:58.546Z,99.90
2018-07-16T08:51:02.530Z,99.90
2018-07-16T08:52:06.542Z,99.90
2018-07-16T08:53:10.545Z,99.90
2018-07-16T08:54:14.587Z,99.90
2018-07-16T08:55:18.634Z,99.90
2018-07-16T08:56:22.666Z,99.90
2018-07-16T08:57:26.742Z,99.90
2018-07-16T08:58:30.762Z,99.90
2018-07-16T08:59:34.897Z,99.90
2018-07-16T09:00:38.871Z,99.90
2018-07-16T09:01:42.876Z,99.90
2018-07-16T09:02:46.928Z,99.90
2018-07-16T09:03:50.952Z,99.90
2018-07-16T09:04:55.008Z,99.90
2018-07-16T09:06:05.225Z,99.90
2018-07-16T09:07:09.318Z,99.90
2018-07-16T09:09:16.966Z,99.90
2018-07-16T09:10:21.007Z,99.90
2018-07-16T09:11:24.953Z,99.90
2018-07-16T09:12:28.953Z,99.90
2018-07-16T09:13:33.170Z,99.90
2018-07-16T09:14:37.124Z,99.90
2018-07-16T09:15:41.180Z,99.90
2018-07-16T09:16:45.233Z,99.90
2018-07-16T09:17:49.216Z,99.90
2018-07-16T09:18:53.200Z,99.90
2018-07-16T09:19:57.180Z,99.90
2018-07-16T09:21:01.218Z,99.90
2018-07-16T09:22:05.244Z,99.90
2018-07-16T09:23:09.238Z,99.90
2018-07-16T09:24:13.284Z,99.90
2018-07-16T09:25:17.326Z,99.90
2018-07-16T09:26:21.305Z,99.90
2018-07-16T09:27:25.343Z,99.90
2018-07-16T09:28:29.334Z,99.90
2018-07-16T09:29:33.410Z,99.90
2018-07-16T09:30:37.403Z,99.90
2018-07-16T09:31:41.407Z,99.90
2018-07-16T09:32:45.520Z,98.80
2018-07-16T09:33:49.470Z,98.60
2018-07-16T09:34:53.521Z,98.60
2018-07-16T09:35:57.497Z,98.70
2018-07-16T09:37:01.571Z,98.90
2018-07-16T09:38:05.784Z,98.90
2018-07-16T09:39:10.248Z,98.80
2018-07-16T09:40:14.361Z,99.00
2018-07-16T09:41:18.406Z,99.30
2018-07-16T09:42:22.404Z,99.10
2018-07-16T09:43:26.460Z,99.40
2018-07-16T09:44:30.544Z,99.60
2018-07-16T09:45:34.497Z,99.90
2018-07-16T09:46:38.490Z,99.90
2018-07-16T09:47:42.510Z,99.90
2018-07-16T09:48:46.562Z,99.90
2018-07-16T09:49:50.592Z,99.90
2018-07-16T09:50:54.583Z,99.90
2018-07-16T09:51:58.594Z,99.90
2018-07-16T09:53:02.618Z,99.90
2018-07-16T09:54:06.921Z,99.90
2018-07-16T09:55:10.982Z,99.90
2018-07-16T09:56:15.036Z,99.90
2018-07-16T09:57:19.029Z,99.90
2018-07-16T09:58:23.038Z,99.90
2018-07-16T09:59:27.111Z,99.90
2018-07-16T10:00:36.650Z,99.90
2018-07-16T10:01:44.424Z,99.90
2018-07-16T10:02:48.402Z,99.90
2018-07-16T10:03:52.479Z,99.90
2018-07-16T10:04:56.597Z,99.90
2018-07-16T10:06:00.591Z,99.90
2018-07-16T10:07:04.610Z,99.90
2018-07-16T10:08:08.693Z,99.90
2018-07-16T10:09:12.714Z,99.90
2018-07-16T10:10:16.725Z,99.90
2018-07-16T10:11:20.844Z,99.70
2018-07-16T10:12:24.877Z,99.70
2018-07-16T10:13:28.957Z,99.90
2018-07-16T10:14:33.006Z,99.90
2018-07-16T10:15:37.013Z,99.60
2018-07-16T10:16:41.030Z,99.60
2018-07-16T10:17:45.112Z,99.30
2018-07-16T10:18:49.124Z,98.90
2018-07-16T10:19:53.252Z,98.60
2018-07-16T10:20:57.232Z,98.20
2018-07-16T10:22:01.329Z,97.90
2018-07-16T10:23:05.312Z,97.60
2018-07-16T10:24:09.410Z,97.80
2018-07-16T10:25:13.577Z,97.90
2018-07-16T10:26:17.557Z,97.90
2018-07-16T10:27:21.560Z,97.60
2018-07-16T10:28:25.602Z,97.70
2018-07-16T10:29:29.930Z,97.40
2018-07-16T10:30:34.074Z,97.00
2018-07-16T10:31:38.077Z,97.10
2018-07-16T10:32:42.068Z,97.40
2018-07-16T10:33:46.210Z,97.40
2018-07-16T10:34:50.150Z,97.60
2018-07-16T10:35:54.157Z,97.60
2018-07-16T10:36:58.329Z,97.80
2018-07-16T10:38:02.317Z,97.70
2018-07-16T10:39:07.659Z,97.90
2018-07-16T10:40:11.862Z,98.00
2018-07-16T10:41:16.034Z,97.40
2018-07-16T10:42:20.025Z,96.40
2018-07-16T10:43:24.146Z,95.80
2018-07-16T10:44:28.087Z,95.70
2018-07-16T10:45:32.120Z,95.80
2018-07-16T10:46:36.135Z,96.10
2018-07-16T10:47:40.153Z,96.40
2018-07-16T10:48:44.231Z,95.30
2018-07-16T10:49:48.326Z,95.30
2018-07-16T10:50:52.283Z,95.10
2018-07-16T10:51:56.278Z,95.30
2018-07-16T10:53:00.307Z,94.90
2018-07-16T10:54:04.454Z,95.00
2018-07-16T10:55:08.545Z,94.90
2018-07-16T10:56:12.633Z,94.80
2018-07-16T10:57:16.630Z,94.70
2018-07-16T10:58:20.683Z,94.80
2018-07-16T10:59:24.756Z,94.90
2018-07-16T11:00:28.967Z,94.70
2018-07-16T11:01:33.085Z,95.00
2018-07-16T11:02:37.085Z,95.10
2018-07-16T11:03:41.495Z,94.60
2018-07-16T11:04:45.898Z,94.50
2018-07-16T11:05:49.931Z,94.40
2018-07-16T11:07:57.643Z,94.30
2018-07-16T11:09:01.675Z,93.90
2018-07-16T11:10:05.803Z,93.70
2018-07-16T11:11:09.934Z,93.50
2018-07-16T11:12:13.971Z,93.20
2018-07-16T11:13:17.974Z,93.10
2018-07-16T11:14:21.950Z,93.10
2018-07-16T11:15:26.006Z,92.50
2018-07-16T11:16:30.096Z,92.50
2018-07-16T11:17:34.075Z,92.40
2018-07-16T11:18:38.063Z,92.30
2018-07-16T11:19:42.075Z,92.00
2018-07-16T11:21:49.723Z,92.50
2018-07-16T11:22:53.747Z,92.40
2018-07-16T11:23:57.823Z,91.90
2018-07-16T11:25:01.829Z,91.40
2018-07-16T11:26:05.878Z,92.20
2018-07-16T11:27:09.927Z,93.20
2018-07-16T11:28:13.943Z,93.40
2018-07-16T11:29:17.942Z,93.50
2018-07-16T11:30:21.927Z,93.60
2018-07-16T11:31:25.926Z,93.70
2018-07-16T11:32:30.006Z,93.80
2018-07-16T11:33:34.094Z,93.80
2018-07-16T11:34:38.129Z,94.20
2018-07-16T11:35:42.296Z,94.40
2018-07-16T11:36:46.326Z,94.30
2018-07-16T11:37:50.603Z,93.80
2018-07-16T11:39:58.262Z,93.00
2018-07-16T11:41:02.454Z,92.80
2018-07-16T11:42:07.034Z,92.20
2018-07-16T11:43:11.069Z,92.60
2018-07-16T11:44:15.083Z,92.60
2018-07-16T11:45:19.118Z,91.90
2018-07-16T11:46:23.170Z,91.90
2018-07-16T11:47:27.477Z,92.30
2018-07-16T11:48:31.529Z,92.60
2018-07-16T11:49:35.524Z,92.50
2018-07-16T11:50:39.558Z,92.40
2018-07-16T11:51:43.576Z,92.70
2018-07-16T11:52:47.603Z,92.30
2018-07-16T11:54:55.268Z,92.40
2018-07-16T11:55:59.282Z,92.10
2018-07-16T11:57:03.309Z,91.90
2018-07-16T11:58:07.345Z,91.70
2018-07-16T11:59:11.476Z,91.40
2018-07-16T12:00:15.428Z,91.40
2018-07-16T12:01:19.798Z,90.40
2018-07-16T12:02:23.813Z,90.20
2018-07-16T12:03:27.881Z,90.40
2018-07-16T12:05:35.457Z,90.40
2018-07-16T12:06:39.470Z,90.30
2018-07-16T12:07:43.527Z,90.30
2018-07-16T12:08:47.659Z,90.50
2018-07-16T12:09:51.670Z,90.50
2018-07-16T12:10:55.770Z,91.00
2018-07-16T12:11:59.774Z,91.00
2018-07-16T12:13:03.828Z,91.00
2018-07-16T12:15:11.522Z,89.90
2018-07-16T12:16:15.502Z,90.10
2018-07-16T12:17:19.669Z,89.60
2018-07-16T12:18:23.680Z,89.50
2018-07-16T12:19:27.659Z,89.40
2018-07-16T12:20:31.698Z,88.70
2018-07-16T12:21:35.747Z,88.50
2018-07-16T12:22:39.759Z,88.80
2018-07-16T12:23:43.907Z,87.70
2018-07-16T12:24:47.886Z,87.00
2018-07-16T12:25:51.922Z,87.60
2018-07-16T12:26:55.884Z,87.40
2018-07-16T12:28:00.036Z,88.10
2018-07-16T12:29:04.295Z,87.80
2018-07-16T12:30:08.346Z,87.80
2018-07-16T12:31:12.383Z,86.00
2018-07-16T12:32:16.377Z,87.50
2018-07-16T12:33:20.441Z,87.40
2018-07-16T12:34:24.466Z,86.20
2018-07-16T12:35:28.536Z,87.00
2018-07-16T12:36:32.527Z,87.10
2018-07-16T12:37:36.700Z,85.80
2018-07-16T12:38:40.889Z,86.40
2018-07-16T12:39:44.959Z,86.00
2018-07-16T12:40:48.998Z,84.90
2018-07-16T12:41:53.131Z,84.10
2018-07-16T12:42:57.141Z,83.70
2018-07-16T12:44:01.412Z,83.70
2018-07-16T12:45:05.948Z,83.80
2018-07-16T12:46:10.016Z,83.90
2018-07-16T12:47:14.094Z,83.50
2018-07-16T12:48:18.124Z,82.60
2018-07-16T12:49:22.827Z,83.70
2018-07-16T12:50:26.867Z,84.00
2018-07-16T12:51:30.840Z,84.00
2018-07-16T12:52:34.837Z,84.70
2018-07-16T12:53:38.818Z,85.10
2018-07-16T12:54:42.998Z,83.50
2018-07-16T12:55:47.031Z,82.50
2018-07-16T12:56:51.016Z,82.30
2018-07-16T12:57:55.020Z,82.50
2018-07-16T12:58:59.049Z,82.50
2018-07-16T13:00:03.079Z,82.90
2018-07-16T13:01:07.062Z,83.10
2018-07-16T13:02:11.520Z,83.00
2018-07-16T13:03:15.495Z,82.70
2018-07-16T13:04:19.509Z,82.70
2018-07-16T13:05:23.505Z,83.60
2018-07-16T13:06:27.527Z,83.00
2018-07-16T13:07:31.530Z,82.00
2018-07-16T13:08:35.575Z,81.10
2018-07-16T13:09:39.583Z,79.00
2018-07-16T13:10:43.717Z,77.80
2018-07-16T13:11:47.736Z,76.80
2018-07-16T13:12:51.750Z,76.60
2018-07-16T13:13:55.735Z,76.50
2018-07-16T13:14:59.734Z,76.50
2018-07-16T13:16:03.890Z,76.10
2018-07-16T13:17:07.806Z,74.90
2018-07-16T13:18:11.844Z,75.10
2018-07-16T13:19:15.979Z,75.00
2018-07-16T13:20:19.988Z,75.40
2018-07-16T13:21:23.990Z,75.50
2018-07-16T13:22:28.270Z,75.00
2018-07-16T13:23:32.565Z,74.00
2018-07-16T13:24:36.666Z,74.30
2018-07-16T13:25:40.683Z,75.50
2018-07-16T13:26:44.716Z,74.20
2018-07-16T13:27:48.721Z,73.00
2018-07-16T13:28:52.743Z,73.70
2018-07-16T13:29:56.857Z,73.50
2018-07-16T13:31:00.827Z,72.20
2018-07-16T13:32:04.817Z,71.40
2018-07-16T13:33:08.885Z,70.20
2018-07-16T13:34:12.907Z,69.20
2018-07-16T13:36:20.494Z,68.00
2018-07-16T13:37:24.476Z,68.90
2018-07-16T13:38:28.595Z,67.60
2018-07-16T13:39:32.587Z,67.80
2018-07-16T13:40:36.568Z,68.60
2018-07-16T13:41:40.564Z,70.10
2018-07-16T13:42:44.680Z,70.10
2018-07-16T13:43:48.830Z,69.20
2018-07-16T13:44:52.833Z,69.70
2018-07-16T13:45:56.833Z,70.00
2018-07-16T13:47:00.891Z,70.50
2018-07-16T13:48:04.878Z,70.50
2018-07-16T13:49:08.867Z,71.10
2018-07-16T13:50:12.907Z,71.00
2018-07-16T13:51:16.931Z,71.20
2018-07-16T13:52:20.938Z,71.90
2018-07-16T13:53:24.936Z,72.30
2018-07-16T13:54:28.933Z,71.30
2018-07-16T13:56:36.679Z,71.90
2018-07-16T13:57:40.698Z,72.00
2018-07-16T13:58:44.692Z,71.80
2018-07-16T13:59:48.737Z,71.60
2018-07-16T14:00:52.724Z,72.10
2018-07-16T14:01:56.845Z,71.90
2018-07-16T14:03:01.214Z,72.30